createdAt,value
2022-11-13T00:00:38.336Z,22.79
2022-11-13T00:01:39.864Z,22.80
2022-11-13T00:02:41.485Z,22.78
2022-11-13T00:03:43.089Z,22.78
2022-11-13T00:04:44.911Z,22.78
2022-11-13T00:05:46.551Z,22.77
2022-11-13T00:06:48.134Z,22.80
2022-11-13T00:07:49.741Z,22.81
2022-11-13T00:08:55.083Z,22.78
2022-11-13T00:09:56.629Z,22.79
2022-11-13T00:11:12.755Z,22.75
2022-11-13T00:12:14.352Z,22.79
2022-11-13T00:13:16.017Z,22.79
2022-11-13T00:14:17.590Z,22.80
2022-11-13T00:15:19.092Z,22.80
2022-11-13T00:16:21.896Z,22.78
2022-11-13T00:17:23.522Z,22.80
2022-11-13T00:18:25.245Z,22.77
2022-11-13T00:19:26.919Z,22.78
2022-11-13T00:20:28.536Z,22.77
2022-11-13T00:21:30.172Z,22.76
2022-11-13T00:22:31.788Z,22.77
2022-11-13T00:23:35.308Z,22.76
2022-11-13T00:24:36.889Z,22.77
2022-11-13T00:25:38.410Z,22.77
2022-11-13T00:26:40.084Z,22.78
2022-11-13T00:27:41.616Z,22.78
2022-11-13T00:28:43.302Z,22.78
2022-11-13T00:29:44.957Z,22.77
2022-11-13T00:30:46.636Z,22.77
2022-11-13T00:31:48.324Z,22.77
2022-11-13T00:32:49.885Z,22.76
2022-11-13T00:35:13.067Z,22.78
2022-11-13T00:36:19.418Z,22.78
2022-11-13T00:37:20.978Z,22.78
2022-11-13T00:38:22.511Z,22.76
2022-11-13T00:39:24.502Z,22.78
2022-11-13T00:40:26.638Z,22.77
2022-11-13T00:41:28.493Z,22.77
2022-11-13T00:42:30.018Z,22.77
2022-11-13T00:43:31.681Z,22.78
2022-11-13T00:44:33.203Z,22.76
2022-11-13T00:45:34.754Z,22.76
2022-11-13T00:46:36.320Z,22.76
2022-11-13T00:47:37.847Z,22.77
2022-11-13T00:48:39.539Z,22.77
2022-11-13T00:49:41.088Z,22.76
2022-11-13T00:50:42.683Z,22.76
2022-11-13T00:51:44.214Z,22.75
2022-11-13T00:52:45.777Z,22.75
2022-11-13T00:53:47.523Z,22.76
2022-11-13T00:54:49.047Z,22.76
2022-11-13T00:55:51.076Z,22.75
2022-11-13T00:56:52.670Z,22.73
2022-11-13T00:57:54.215Z,22.74
2022-11-13T00:58:55.750Z,22.75
2022-11-13T00:59:57.305Z,22.76
2022-11-13T01:01:06.241Z,22.73
2022-11-13T01:02:07.855Z,22.78
2022-11-13T01:03:09.520Z,22.78
2022-11-13T01:04:11.185Z,22.78
2022-11-13T01:05:12.797Z,22.77
2022-11-13T01:06:22.161Z,22.73
2022-11-13T01:07:23.707Z,22.76
2022-11-13T01:08:25.553Z,22.75
2022-11-13T01:09:27.232Z,22.76
2022-11-13T01:10:28.804Z,22.76
2022-11-13T01:11:31.253Z,22.77
2022-11-13T01:12:33.228Z,22.76
2022-11-13T01:13:34.853Z,22.76
2022-11-13T01:14:36.433Z,22.77
2022-11-13T01:15:42.666Z,22.74
2022-11-13T01:16:44.202Z,22.76
2022-11-13T01:17:45.838Z,22.76
2022-11-13T01:18:47.776Z,22.74
2022-11-13T01:19:49.342Z,22.76
2022-11-13T01:20:50.877Z,22.73
2022-11-13T01:21:52.399Z,22.74
2022-11-13T01:22:53.968Z,22.74
2022-11-13T01:23:56.293Z,22.76
2022-11-13T01:24:58.721Z,22.76
2022-11-13T01:26:15.018Z,22.71
2022-11-13T01:27:16.621Z,22.75
2022-11-13T01:28:18.142Z,22.76
2022-11-13T01:29:19.695Z,22.79
2022-11-13T01:30:21.256Z,22.77
2022-11-13T01:31:25.588Z,22.77
2022-11-13T01:32:27.178Z,22.79
2022-11-13T01:33:29.061Z,22.78
2022-11-13T01:34:30.674Z,22.79
2022-11-13T01:35:32.229Z,22.78
2022-11-13T01:36:33.877Z,22.80
2022-11-13T01:37:35.427Z,22.80
2022-11-13T01:38:38.248Z,22.79
2022-11-13T01:39:40.133Z,22.80
2022-11-13T01:40:48.281Z,22.78
2022-11-13T01:41:49.844Z,22.79
2022-11-13T01:42:51.445Z,22.78
2022-11-13T01:43:54.764Z,22.79
2022-11-13T01:44:59.746Z,22.76
2022-11-13T01:46:13.554Z,22.76
2022-11-13T01:47:15.933Z,22.79
2022-11-13T01:48:17.680Z,22.77
2022-11-13T01:49:36.377Z,22.72
2022-11-13T01:50:38.485Z,22.77
2022-11-13T01:51:42.538Z,22.75
2022-11-13T01:52:44.153Z,22.75
2022-11-13T01:53:47.412Z,22.77
2022-11-13T01:54:53.569Z,22.75
2022-11-13T01:55:55.137Z,22.76
2022-11-13T01:56:56.862Z,22.77
2022-11-13T01:57:59.910Z,22.77
2022-11-13T01:59:10.425Z,22.76
2022-11-13T02:00:12.729Z,22.79
2022-11-13T02:01:14.349Z,22.81
2022-11-13T02:02:16.177Z,22.80
2022-11-13T02:03:17.795Z,22.80
2022-11-13T02:04:19.336Z,22.79
2022-11-13T02:05:20.854Z,22.78
2022-11-13T02:06:22.727Z,22.79
2022-11-13T02:07:24.595Z,22.77
2022-11-13T02:08:26.640Z,22.77
2022-11-13T02:09:40.501Z,22.73
2022-11-13T02:10:42.107Z,22.77
2022-11-13T02:11:44.430Z,22.76
2022-11-13T02:12:51.830Z,22.77
2022-11-13T02:13:53.556Z,22.78
2022-11-13T02:14:58.012Z,22.78
2022-11-13T02:15:59.920Z,22.79
2022-11-13T02:17:09.099Z,22.76
2022-11-13T02:18:12.134Z,22.78
2022-11-13T02:19:26.097Z,22.76
2022-11-13T02:20:38.282Z,22.78
2022-11-13T02:22:19.297Z,22.78
2022-11-13T02:23:31.064Z,22.80
2022-11-13T02:24:37.772Z,22.81
2022-11-13T02:25:42.006Z,22.80
2022-11-13T02:26:44.751Z,22.81
2022-11-13T02:27:48.720Z,22.80
2022-11-13T02:28:50.300Z,22.79
2022-11-13T02:29:51.928Z,22.78
2022-11-13T02:30:53.495Z,22.77
2022-11-13T02:31:55.754Z,22.78
2022-11-13T02:32:58.868Z,22.77
2022-11-13T02:34:02.377Z,22.78
2022-11-13T02:35:04.091Z,22.77
2022-11-13T02:36:08.218Z,22.78
2022-11-13T02:37:09.787Z,22.78
2022-11-13T02:38:11.350Z,22.78
2022-11-13T02:39:13.918Z,22.76
2022-11-13T02:40:16.349Z,22.75
2022-11-13T02:41:17.930Z,22.76
2022-11-13T02:42:19.436Z,22.77
2022-11-13T02:43:20.930Z,22.77
2022-11-13T02:44:22.446Z,22.76
2022-11-13T02:45:24.380Z,22.75
2022-11-13T02:46:25.924Z,22.75
2022-11-13T02:47:27.921Z,22.73
2022-11-13T02:48:29.784Z,22.73
2022-11-13T02:49:31.518Z,22.73
2022-11-13T02:50:35.029Z,22.71
2022-11-13T02:51:36.815Z,22.74
2022-11-13T02:52:38.639Z,22.73
2022-11-13T02:53:40.744Z,22.75
2022-11-13T02:54:42.288Z,22.76
2022-11-13T02:55:43.861Z,22.77
2022-11-13T02:56:45.514Z,22.76
2022-11-13T02:57:47.040Z,22.76
2022-11-13T02:58:48.633Z,22.77
2022-11-13T02:59:50.227Z,22.76
2022-11-13T03:00:51.791Z,22.76
2022-11-13T03:01:53.427Z,22.76
2022-11-13T03:02:55.902Z,22.75
2022-11-13T03:03:58.417Z,22.77
2022-11-13T03:05:15.541Z,22.74
2022-11-13T03:06:17.274Z,22.74
2022-11-13T03:07:18.914Z,22.74
2022-11-13T03:08:21.612Z,22.76
2022-11-13T03:09:23.136Z,22.75
2022-11-13T03:10:24.688Z,22.76
2022-11-13T03:11:26.221Z,22.75
2022-11-13T03:12:27.773Z,22.73
2022-11-13T03:13:29.274Z,22.74
2022-11-13T03:14:30.989Z,22.76
2022-11-13T03:15:34.368Z,22.76
2022-11-13T03:16:36.218Z,22.75
2022-11-13T03:17:37.759Z,22.76
2022-11-13T03:18:39.909Z,22.73
2022-11-13T03:19:41.467Z,22.75
2022-11-13T03:20:43.944Z,22.73
2022-11-13T03:21:45.484Z,22.72
2022-11-13T03:22:47.009Z,22.71
2022-11-13T03:23:48.562Z,22.71
2022-11-13T03:24:50.154Z,22.71
2022-11-13T03:25:51.780Z,22.70
2022-11-13T03:26:53.358Z,22.71
2022-11-13T03:27:54.902Z,22.72
2022-11-13T03:28:56.443Z,22.73
2022-11-13T03:29:58.001Z,22.73
2022-11-13T03:30:59.530Z,22.71
2022-11-13T03:32:03.144Z,22.70
2022-11-13T03:33:04.694Z,22.71
2022-11-13T03:34:06.325Z,22.71
2022-11-13T03:35:08.904Z,22.74
2022-11-13T03:36:10.654Z,22.73
2022-11-13T03:37:12.252Z,22.74
2022-11-13T03:38:13.869Z,22.73
2022-11-13T03:39:15.591Z,22.73
2022-11-13T03:40:17.900Z,22.71
2022-11-13T03:41:19.780Z,22.71
2022-11-13T03:42:21.374Z,22.71
2022-11-13T03:43:23.311Z,22.70
2022-11-13T03:44:24.838Z,22.70
2022-11-13T03:45:26.397Z,22.67
2022-11-13T03:46:28.013Z,22.68
2022-11-13T03:47:29.623Z,22.68
2022-11-13T03:48:31.592Z,22.66
2022-11-13T03:49:33.367Z,22.68
2022-11-13T03:50:34.946Z,22.67
2022-11-13T03:51:36.456Z,22.70
2022-11-13T03:52:37.989Z,22.68
2022-11-13T03:53:39.627Z,22.68
2022-11-13T03:54:41.170Z,22.68
2022-11-13T03:55:43.653Z,22.69
2022-11-13T03:56:45.440Z,22.67
2022-11-13T03:57:47.438Z,22.70
2022-11-13T03:58:49.825Z,22.69
2022-11-13T03:59:51.437Z,22.68
2022-11-13T04:00:55.575Z,22.68
2022-11-13T04:01:57.253Z,22.69
2022-11-13T04:02:58.865Z,22.68
2022-11-13T04:04:00.437Z,22.67
2022-11-13T04:05:02.041Z,22.68
2022-11-13T04:06:03.769Z,22.68
2022-11-13T04:07:05.382Z,22.68
2022-11-13T04:08:07.099Z,22.68
2022-11-13T04:09:08.614Z,22.68
2022-11-13T04:10:10.332Z,22.67
2022-11-13T04:11:13.257Z,22.69
2022-11-13T04:12:14.819Z,22.68
2022-11-13T04:13:16.403Z,22.69
2022-11-13T04:14:18.118Z,22.69
2022-11-13T04:15:19.681Z,22.69
2022-11-13T04:16:21.236Z,22.70
2022-11-13T04:17:22.783Z,22.66
2022-11-13T04:18:24.418Z,22.65
2022-11-13T04:19:26.040Z,22.65
2022-11-13T04:20:28.107Z,22.66
2022-11-13T04:21:29.686Z,22.66
2022-11-13T04:22:31.220Z,22.67
2022-11-13T04:23:33.058Z,22.67
2022-11-13T04:24:34.579Z,22.66
2022-11-13T04:25:36.170Z,22.67
2022-11-13T04:26:37.713Z,22.67
2022-11-13T04:27:39.383Z,22.69
2022-11-13T04:28:40.984Z,22.68
2022-11-13T04:29:42.532Z,22.68
2022-11-13T04:30:44.106Z,22.67
2022-11-13T04:31:45.637Z,22.68
2022-11-13T04:32:47.235Z,22.67
2022-11-13T04:33:48.801Z,22.67
2022-11-13T04:34:50.302Z,22.68
2022-11-13T04:35:51.828Z,22.67
2022-11-13T04:36:53.385Z,22.66
2022-11-13T04:37:55.045Z,22.67
2022-11-13T04:38:56.578Z,22.67
2022-11-13T04:39:58.081Z,22.66
2022-11-13T04:41:17.954Z,22.67
2022-11-13T04:42:38.244Z,22.68
2022-11-13T04:43:39.776Z,22.67
2022-11-13T04:44:41.365Z,22.67
2022-11-13T04:45:43.032Z,22.66
2022-11-13T04:46:44.714Z,22.67
2022-11-13T04:47:46.437Z,22.66
2022-11-13T04:48:47.981Z,22.66
2022-11-13T04:49:49.606Z,22.65
2022-11-13T04:50:51.152Z,22.61
2022-11-13T04:51:52.674Z,22.61
2022-11-13T04:52:54.225Z,22.64
2022-11-13T04:53:55.741Z,22.65
2022-11-13T04:54:57.381Z,22.65
2022-11-13T04:55:58.981Z,22.65
2022-11-13T04:57:00.509Z,22.64
2022-11-13T04:58:02.041Z,22.66
2022-11-13T04:59:03.601Z,22.66
2022-11-13T05:00:06.967Z,22.66
2022-11-13T05:01:08.630Z,22.66
2022-11-13T05:02:10.145Z,22.67
2022-11-13T05:03:11.650Z,22.67
2022-11-13T05:04:14.705Z,22.67
2022-11-13T05:05:16.558Z,22.68
2022-11-13T05:06:18.156Z,22.68
2022-11-13T05:07:19.725Z,22.64
2022-11-13T05:08:21.257Z,22.64
2022-11-13T05:09:22.812Z,22.64
2022-11-13T05:10:24.349Z,22.66
2022-11-13T05:11:25.886Z,22.65
2022-11-13T05:12:27.433Z,22.66
2022-11-13T05:13:33.798Z,22.65
2022-11-13T05:14:37.340Z,22.64
2022-11-13T05:15:38.917Z,22.66
2022-11-13T05:16:40.581Z,22.66
2022-11-13T05:17:42.106Z,22.66
2022-11-13T05:18:43.716Z,22.68
2022-11-13T05:19:45.233Z,22.68
2022-11-13T05:20:46.783Z,22.66
2022-11-13T05:21:48.305Z,22.68
2022-11-13T05:22:49.888Z,22.67
2022-11-13T05:23:51.397Z,22.67
2022-11-13T05:24:52.934Z,22.68
2022-11-13T05:26:01.565Z,22.65
2022-11-13T05:27:03.104Z,22.68
2022-11-13T05:28:04.859Z,22.67
2022-11-13T05:29:06.709Z,22.68
2022-11-13T05:30:08.873Z,22.66
2022-11-13T05:31:15.477Z,22.64
2022-11-13T05:32:17.180Z,22.66
2022-11-13T05:33:18.696Z,22.67
2022-11-13T05:34:20.273Z,22.67
2022-11-13T05:35:21.784Z,22.66
2022-11-13T05:36:23.565Z,22.69
2022-11-13T05:37:25.102Z,22.68
2022-11-13T05:38:28.103Z,22.70
2022-11-13T05:39:29.810Z,22.69
2022-11-13T05:40:31.513Z,22.69
2022-11-13T05:41:33.061Z,22.67
2022-11-13T05:42:34.602Z,22.66
2022-11-13T05:43:37.193Z,22.66
2022-11-13T05:44:38.721Z,22.65
2022-11-13T05:45:40.282Z,22.66
2022-11-13T05:46:41.821Z,22.65
2022-11-13T05:47:43.455Z,22.67
2022-11-13T05:48:46.046Z,22.65
2022-11-13T05:49:47.580Z,22.67
2022-11-13T05:50:49.134Z,22.67
2022-11-13T05:51:50.691Z,22.66
2022-11-13T05:52:52.257Z,22.65
2022-11-13T05:53:54.338Z,22.63
2022-11-13T05:54:55.931Z,22.62
2022-11-13T05:56:02.440Z,22.63
2022-11-13T05:57:04.069Z,22.65
2022-11-13T05:58:05.579Z,22.65
2022-11-13T05:59:07.583Z,22.64
2022-11-13T06:00:09.728Z,22.65
2022-11-13T06:01:14.835Z,22.64
2022-11-13T06:02:16.398Z,22.65
2022-11-13T06:03:17.924Z,22.65
2022-11-13T06:04:19.451Z,22.64
2022-11-13T06:05:20.999Z,22.64
2022-11-13T06:06:23.817Z,22.62
2022-11-13T06:07:25.414Z,22.63
2022-11-13T06:08:27.471Z,22.63
2022-11-13T06:09:29.283Z,22.62
2022-11-13T06:10:30.830Z,22.64
2022-11-13T06:11:32.618Z,22.64
2022-11-13T06:12:34.142Z,22.65
2022-11-13T06:13:36.282Z,22.65
2022-11-13T06:14:37.855Z,22.65
2022-11-13T06:15:39.376Z,22.67
2022-11-13T06:16:41.427Z,22.65
2022-11-13T06:17:46.466Z,22.64
2022-11-13T06:18:49.125Z,22.66
2022-11-13T06:19:50.673Z,22.66
2022-11-13T06:20:52.399Z,22.66
2022-11-13T06:21:53.943Z,22.66
2022-11-13T06:22:55.472Z,22.67
2022-11-13T06:23:58.469Z,22.67
2022-11-13T06:25:00.028Z,22.69
2022-11-13T06:26:15.583Z,22.66
2022-11-13T06:27:17.120Z,22.67
2022-11-13T06:28:18.668Z,22.67
2022-11-13T06:29:20.332Z,22.65
2022-11-13T06:30:21.849Z,22.65
2022-11-13T06:31:26.106Z,22.65
2022-11-13T06:32:27.633Z,22.65
2022-11-13T06:33:29.229Z,22.67
2022-11-13T06:34:30.805Z,22.66
2022-11-13T06:35:32.538Z,22.66
2022-11-13T06:36:36.570Z,22.64
2022-11-13T06:37:38.080Z,22.68
2022-11-13T06:38:40.719Z,22.67
2022-11-13T06:39:42.312Z,22.67
2022-11-13T06:40:43.873Z,22.67
2022-11-13T06:41:45.413Z,22.68
2022-11-13T06:42:47.024Z,22.67
2022-11-13T06:43:49.180Z,22.69
2022-11-13T06:44:50.733Z,22.67
2022-11-13T06:45:52.674Z,22.67
2022-11-13T06:46:54.230Z,22.67
2022-11-13T06:47:55.756Z,22.67
2022-11-13T06:48:57.854Z,22.67
2022-11-13T06:49:59.377Z,22.68
2022-11-13T06:51:02.757Z,22.67
2022-11-13T06:52:04.429Z,22.68
2022-11-13T06:53:05.942Z,22.69
2022-11-13T06:54:07.521Z,22.68
2022-11-13T06:55:09.178Z,22.69
2022-11-13T06:56:11.974Z,22.70
2022-11-13T06:57:13.640Z,22.70
2022-11-13T06:58:15.598Z,22.73
2022-11-13T06:59:17.609Z,22.73
2022-11-13T07:00:19.337Z,22.70
2022-11-13T07:01:23.077Z,22.71
2022-11-13T07:02:24.635Z,22.73
2022-11-13T07:03:27.107Z,22.71
2022-11-13T07:04:28.681Z,22.72
2022-11-13T07:05:30.221Z,22.71
2022-11-13T07:06:34.978Z,22.70
2022-11-13T07:07:39.191Z,22.71
2022-11-13T07:08:42.185Z,22.70
2022-11-13T07:09:43.747Z,22.74
2022-11-13T07:10:53.880Z,22.70
2022-11-13T07:11:55.420Z,22.75
2022-11-13T07:13:00.214Z,22.75
2022-11-13T07:14:01.824Z,22.76
2022-11-13T07:15:03.570Z,22.76
2022-11-13T07:16:16.463Z,22.77
2022-11-13T07:17:18.767Z,22.77
2022-11-13T07:18:24.194Z,22.76
2022-11-13T07:19:25.908Z,22.76
2022-11-13T07:20:27.558Z,22.76
2022-11-13T07:21:29.139Z,22.78
2022-11-13T07:22:30.711Z,22.81
2022-11-13T07:23:33.075Z,22.83
2022-11-13T07:24:34.581Z,22.88
2022-11-13T07:25:36.466Z,22.89
2022-11-13T07:26:37.987Z,22.89
2022-11-13T07:27:44.906Z,22.87
2022-11-13T07:28:47.306Z,22.93
2022-11-13T07:29:48.797Z,22.92
2022-11-13T07:30:50.394Z,22.94
2022-11-13T07:31:51.988Z,22.93
2022-11-13T07:32:53.817Z,22.93
2022-11-13T07:33:55.367Z,22.94
2022-11-13T07:34:56.865Z,22.95
2022-11-13T07:35:59.293Z,22.98
2022-11-13T07:37:00.806Z,22.99
2022-11-13T07:38:02.384Z,22.99
2022-11-13T07:39:04.063Z,22.97
2022-11-13T07:40:06.927Z,22.97
2022-11-13T07:41:08.626Z,22.99
2022-11-13T07:42:10.259Z,23.01
2022-11-13T07:43:11.794Z,23.02
2022-11-13T07:44:27.195Z,23.06
2022-11-13T07:45:34.857Z,23.12
2022-11-13T07:46:36.679Z,23.15
2022-11-13T07:47:39.038Z,23.19
2022-11-13T07:48:40.693Z,23.23
2022-11-13T07:49:42.208Z,23.25
2022-11-13T07:50:43.699Z,23.27
2022-11-13T07:51:45.241Z,23.28
2022-11-13T07:52:46.749Z,23.30
2022-11-13T07:53:48.269Z,23.30
2022-11-13T07:54:49.881Z,23.37
2022-11-13T07:55:51.412Z,23.36
2022-11-13T07:56:53.620Z,23.35
2022-11-13T07:57:57.845Z,23.35
2022-11-13T07:58:59.448Z,23.38
2022-11-13T08:00:00.997Z,23.39
2022-11-13T08:01:07.058Z,23.41
2022-11-13T08:02:15.221Z,23.40
2022-11-13T08:03:17.562Z,23.43
2022-11-13T08:04:19.249Z,23.43
2022-11-13T08:05:21.247Z,23.42
2022-11-13T08:06:24.068Z,23.41
2022-11-13T08:07:25.662Z,23.40
2022-11-13T08:08:27.567Z,23.42
2022-11-13T08:09:29.396Z,23.42
2022-11-13T08:10:31.168Z,23.42
2022-11-13T08:11:32.783Z,23.42
2022-11-13T08:12:34.319Z,23.43
2022-11-13T08:13:36.650Z,23.42
2022-11-13T08:14:38.249Z,23.44
2022-11-13T08:15:39.849Z,23.44
2022-11-13T08:16:41.421Z,23.46
2022-11-13T08:17:43.242Z,23.44
2022-11-13T08:18:44.882Z,23.45
2022-11-13T08:19:46.424Z,23.45
2022-11-13T08:20:47.933Z,23.45
2022-11-13T08:21:49.441Z,23.44
2022-11-13T08:22:51.689Z,23.44
2022-11-13T08:23:53.277Z,23.43
2022-11-13T08:24:55.017Z,23.42
2022-11-13T08:25:57.029Z,23.44
2022-11-13T08:26:58.608Z,23.42
2022-11-13T08:28:00.850Z,23.41
2022-11-13T08:29:02.420Z,23.43
2022-11-13T08:30:04.628Z,23.44
2022-11-13T08:31:11.412Z,23.42
2022-11-13T08:32:16.771Z,23.40
2022-11-13T08:33:18.848Z,23.40
2022-11-13T08:34:20.554Z,23.42
2022-11-13T08:35:28.013Z,23.43
2022-11-13T08:36:30.988Z,23.44
2022-11-13T08:37:33.085Z,23.43
2022-11-13T08:38:34.784Z,23.40
2022-11-13T08:39:36.367Z,23.40
2022-11-13T08:40:37.910Z,23.39
2022-11-13T08:41:39.420Z,23.38
2022-11-13T08:42:41.018Z,23.38
2022-11-13T08:43:42.578Z,23.38
2022-11-13T08:44:44.162Z,23.40
2022-11-13T08:45:47.414Z,23.43
2022-11-13T08:46:48.982Z,23.43
2022-11-13T08:47:50.505Z,23.44
2022-11-13T08:48:52.049Z,23.45
2022-11-13T08:49:53.545Z,23.43
2022-11-13T08:50:56.737Z,23.42
2022-11-13T08:51:58.380Z,23.45
2022-11-13T08:53:01.449Z,23.43
2022-11-13T08:54:03.025Z,23.44
2022-11-13T08:55:04.929Z,23.43
2022-11-13T08:56:07.517Z,23.42
2022-11-13T08:57:09.089Z,23.42
2022-11-13T08:58:10.618Z,23.44
2022-11-13T08:59:12.211Z,23.43
2022-11-13T09:00:14.333Z,23.43
2022-11-13T09:01:16.887Z,23.44
2022-11-13T09:02:18.426Z,23.43
2022-11-13T09:03:20.129Z,23.42
2022-11-13T09:04:22.370Z,23.43
2022-11-13T09:05:25.130Z,23.42
2022-11-13T09:06:26.646Z,23.45
2022-11-13T09:07:28.205Z,23.46
2022-11-13T09:08:32.662Z,23.48
2022-11-13T09:09:34.547Z,23.48
2022-11-13T09:10:36.547Z,23.46
2022-11-13T09:11:38.191Z,23.47
2022-11-13T09:12:39.931Z,23.47
2022-11-13T09:13:45.153Z,23.44
2022-11-13T09:14:48.993Z,23.47
2022-11-13T09:15:50.518Z,23.49
2022-11-13T09:16:52.073Z,23.49
2022-11-13T09:17:58.320Z,23.47
2022-11-13T09:18:59.870Z,23.48
2022-11-13T09:20:04.232Z,23.44
2022-11-13T09:21:06.962Z,23.48
2022-11-13T09:22:08.512Z,23.48
2022-11-13T09:23:10.021Z,23.45
2022-11-13T09:24:11.787Z,23.47
2022-11-13T09:25:13.298Z,23.45
2022-11-13T09:26:14.867Z,23.45
2022-11-13T09:27:16.414Z,23.47
2022-11-13T09:28:17.942Z,23.47
2022-11-13T09:29:19.469Z,23.48
2022-11-13T09:30:21.609Z,23.48
2022-11-13T09:31:23.196Z,23.47
2022-11-13T09:32:25.139Z,23.46
2022-11-13T09:33:26.687Z,23.47
2022-11-13T09:34:28.284Z,23.49
2022-11-13T09:35:34.572Z,23.49
2022-11-13T09:36:36.889Z,23.49
2022-11-13T09:37:38.423Z,23.52
2022-11-13T09:38:40.696Z,23.55
2022-11-13T09:39:42.323Z,23.53
2022-11-13T09:40:51.529Z,23.50
2022-11-13T09:42:02.279Z,23.54
2022-11-13T09:43:10.919Z,23.53
2022-11-13T09:44:18.479Z,23.53
2022-11-13T09:45:20.120Z,23.55
2022-11-13T09:46:29.978Z,23.53
2022-11-13T09:47:36.589Z,23.54
2022-11-13T09:48:46.869Z,23.54
2022-11-13T09:49:54.322Z,23.55
2022-11-13T09:50:57.380Z,23.56
2022-11-13T09:52:06.680Z,23.52
2022-11-13T09:53:12.665Z,23.53
2022-11-13T09:54:15.450Z,23.56
2022-11-13T09:55:20.019Z,23.53
2022-11-13T09:56:42.823Z,23.48
2022-11-13T09:57:44.631Z,23.49
2022-11-13T09:58:55.360Z,23.47
2022-11-13T10:00:04.761Z,23.48
2022-11-13T10:01:16.093Z,23.48
2022-11-13T10:02:37.406Z,23.45
2022-11-13T10:04:00.336Z,23.51
2022-11-13T10:05:10.350Z,23.53
2022-11-13T10:06:44.008Z,23.48
2022-11-13T10:08:09.768Z,23.49
2022-11-13T10:09:22.020Z,23.51
2022-11-13T10:10:37.217Z,23.52
2022-11-13T10:11:51.017Z,23.52
2022-11-13T10:12:55.528Z,23.54
2022-11-13T10:14:03.417Z,23.52
2022-11-13T10:15:05.978Z,23.47
2022-11-13T10:16:34.229Z,23.40
2022-11-13T10:17:49.108Z,23.44
2022-11-13T10:18:51.650Z,23.49
2022-11-13T10:20:00.930Z,23.48
2022-11-13T10:21:32.094Z,23.42
2022-11-13T10:22:56.825Z,23.45
2022-11-13T10:24:04.630Z,23.50
2022-11-13T10:25:19.198Z,23.46
2022-11-13T10:26:22.939Z,23.49
2022-11-13T10:27:24.525Z,23.51
2022-11-13T10:28:49.306Z,23.49
2022-11-13T10:29:49.430Z,23.53
2022-11-13T10:30:51.207Z,23.53
2022-11-13T10:31:52.893Z,23.55
2022-11-13T10:32:54.574Z,23.50
2022-11-13T10:33:57.608Z,23.45
2022-11-13T10:35:09.532Z,23.43
2022-11-13T10:36:41.900Z,23.39
2022-11-13T10:37:54.695Z,23.41
2022-11-13T10:39:05.300Z,23.42
2022-11-13T10:40:07.434Z,23.46
2022-11-13T10:41:20.185Z,23.42
2022-11-13T10:42:28.931Z,23.44
2022-11-13T10:43:30.713Z,23.48
2022-11-13T10:44:33.428Z,23.48
2022-11-13T10:45:35.016Z,23.48
2022-11-13T10:46:36.540Z,23.48
2022-11-13T10:48:03.171Z,23.47
2022-11-13T10:49:29.089Z,23.48
2022-11-13T10:50:31.285Z,23.56
2022-11-13T10:51:36.894Z,23.54
2022-11-13T10:52:47.380Z,23.50
2022-11-13T10:53:49.385Z,23.52
2022-11-13T10:54:51.218Z,23.55
2022-11-13T10:55:56.999Z,23.53
2022-11-13T10:57:19.179Z,23.51
2022-11-13T10:58:20.711Z,23.56
2022-11-13T10:59:22.282Z,23.53
2022-11-13T11:00:25.605Z,23.54
2022-11-13T11:01:27.499Z,23.56
2022-11-13T11:02:29.381Z,23.54
2022-11-13T11:03:30.969Z,23.55
2022-11-13T11:04:32.583Z,23.56
2022-11-13T11:05:34.658Z,23.57
2022-11-13T11:07:13.164Z,23.57
2022-11-13T11:08:01.115Z,23.58
2022-11-13T11:09:18.265Z,23.53
2022-11-13T11:10:28.637Z,23.55
2022-11-13T11:11:48.681Z,23.57
2022-11-13T11:13:07.156Z,23.53
2022-11-13T11:14:26.639Z,23.51
2022-11-13T11:15:36.485Z,23.57
2022-11-13T11:16:39.021Z,23.56
2022-11-13T11:17:58.025Z,23.53
2022-11-13T11:19:02.876Z,23.57
2022-11-13T11:20:16.645Z,23.54
2022-11-13T11:21:32.681Z,23.53
2022-11-13T11:22:38.009Z,23.59
2022-11-13T11:23:56.040Z,23.56
2022-11-13T11:25:17.857Z,23.51
2022-11-13T11:26:37.697Z,23.54
2022-11-13T11:27:48.134Z,23.55
2022-11-13T11:29:12.707Z,23.56
2022-11-13T11:30:19.017Z,23.59
2022-11-13T11:31:29.694Z,23.57
2022-11-13T11:32:45.141Z,23.57
2022-11-13T11:34:11.230Z,23.57
2022-11-13T11:35:21.045Z,23.59
2022-11-13T11:36:32.125Z,23.54
2022-11-13T11:37:46.067Z,23.55
2022-11-13T11:38:59.484Z,23.52
2022-11-13T11:40:16.326Z,23.57
2022-11-13T11:41:23.482Z,23.64
2022-11-13T11:42:47.409Z,23.66
2022-11-13T11:44:02.056Z,23.67
2022-11-13T11:45:37.432Z,23.63
2022-11-13T11:46:41.629Z,23.66
2022-11-13T11:47:47.193Z,23.65
2022-11-13T11:48:50.261Z,23.65
2022-11-13T11:49:51.845Z,23.61
2022-11-13T11:51:08.900Z,23.56
2022-11-13T11:52:22.398Z,23.59
2022-11-13T11:53:38.170Z,23.61
2022-11-13T11:54:49.465Z,23.58
2022-11-13T11:55:56.995Z,23.58
2022-11-13T11:57:14.367Z,23.56
2022-11-13T11:58:18.497Z,23.58
2022-11-13T11:59:19.977Z,23.59
2022-11-13T12:00:21.541Z,23.58
2022-11-13T12:01:41.796Z,23.52
2022-11-13T12:03:18.581Z,23.52
2022-11-13T12:04:30.836Z,23.59
2022-11-13T12:05:45.056Z,23.57
2022-11-13T12:07:23.882Z,23.57
2022-11-13T12:08:47.068Z,23.55
2022-11-13T12:10:13.518Z,23.52
2022-11-13T12:11:44.122Z,23.49
2022-11-13T12:12:48.642Z,23.53
2022-11-13T12:14:12.428Z,23.51
2022-11-13T12:15:51.156Z,23.51
2022-11-13T12:17:27.897Z,23.50
2022-11-13T12:18:36.119Z,23.53
2022-11-13T12:19:57.913Z,23.53
2022-11-13T12:21:28.709Z,23.51
2022-11-13T12:22:48.897Z,23.56
2022-11-13T12:23:56.503Z,23.54
2022-11-13T12:25:26.024Z,23.51
2022-11-13T12:26:53.425Z,23.53
2022-11-13T12:28:13.006Z,23.53
2022-11-13T12:29:36.201Z,23.51
2022-11-13T12:31:16.090Z,23.53
2022-11-13T12:32:45.495Z,23.53
2022-11-13T12:33:46.997Z,23.59
2022-11-13T12:34:56.702Z,23.50
2022-11-13T12:35:58.785Z,23.53
2022-11-13T12:37:04.348Z,23.51
2022-11-13T12:38:23.429Z,23.49
2022-11-13T12:39:31.089Z,23.48
2022-11-13T12:40:53.951Z,23.47
2022-11-13T12:42:05.131Z,23.49
2022-11-13T12:43:26.862Z,23.48
2022-11-13T12:44:30.621Z,23.55
2022-11-13T12:45:38.198Z,23.52
2022-11-13T12:46:41.473Z,23.54
2022-11-13T12:47:43.400Z,23.54
2022-11-13T12:48:47.171Z,23.56
2022-11-13T12:49:59.554Z,23.56
2022-11-13T12:51:07.805Z,23.60
2022-11-13T12:52:23.021Z,23.55
2022-11-13T12:53:31.107Z,23.58
2022-11-13T12:54:36.134Z,23.60
2022-11-13T12:55:40.043Z,23.58
2022-11-13T12:56:41.557Z,23.58
2022-11-13T12:57:48.196Z,23.58
2022-11-13T12:59:28.699Z,23.57
2022-11-13T13:00:27.250Z,23.59
2022-11-13T13:01:42.555Z,23.58
2022-11-13T13:03:15.613Z,23.52
2022-11-13T13:04:29.066Z,23.55
2022-11-13T13:05:38.842Z,23.55
2022-11-13T13:06:59.114Z,23.54
2022-11-13T13:08:18.628Z,23.56
2022-11-13T13:09:48.170Z,23.53
2022-11-13T13:10:54.774Z,23.54
2022-11-13T13:12:14.797Z,23.51
2022-11-13T13:13:34.556Z,23.57
2022-11-13T13:15:08.666Z,23.50
2022-11-13T13:16:10.732Z,23.59
2022-11-13T13:17:15.285Z,23.60
2022-11-13T13:18:16.739Z,23.59
2022-11-13T13:19:21.275Z,23.58
2022-11-13T13:20:22.733Z,23.59
2022-11-13T13:21:24.253Z,23.60
2022-11-13T13:22:29.747Z,23.58
2022-11-13T13:23:34.391Z,23.59
2022-11-13T13:24:38.735Z,23.59
2022-11-13T13:25:41.044Z,23.62
2022-11-13T13:26:47.246Z,23.63
2022-11-13T13:28:23.888Z,23.62
2022-11-13T13:29:26.637Z,23.67
2022-11-13T13:30:31.527Z,23.68
2022-11-13T13:31:37.380Z,23.68
2022-11-13T13:33:25.401Z,23.60
2022-11-13T13:34:53.317Z,23.58
2022-11-13T13:36:04.432Z,23.63
2022-11-13T13:37:17.841Z,23.58
2022-11-13T13:38:31.957Z,23.57
2022-11-13T13:39:42.724Z,23.59
2022-11-13T13:40:53.365Z,23.57
2022-11-13T13:42:22.565Z,23.59
2022-11-13T13:43:44.858Z,23.62
2022-11-13T13:45:25.183Z,23.56
2022-11-13T13:46:31.476Z,23.63
2022-11-13T13:47:40.120Z,23.61
2022-11-13T13:48:45.529Z,23.63
2022-11-13T13:49:47.359Z,23.64
2022-11-13T13:50:50.753Z,23.63
2022-11-13T13:51:55.282Z,23.63
2022-11-13T13:52:58.957Z,23.61
2022-11-13T13:54:05.241Z,23.60
2022-11-13T13:55:07.957Z,23.62
2022-11-13T13:56:12.115Z,23.61
2022-11-13T13:57:16.490Z,23.61
2022-11-13T13:58:24.611Z,23.61
2022-11-13T13:59:36.212Z,23.64
2022-11-13T14:00:53.159Z,23.63
2022-11-13T14:02:02.150Z,23.64
2022-11-13T14:03:04.089Z,23.63